Sosnovy Bor, Russia
Current Conditions -  °F | °C
As of 10:20 AM on Tuesday 21 Oct 2014 (Local Time) from EFLP Reporting Station
Overcast Overcast  
Wind Chill: 21°   Ceiling: 1600
Heat Index: 30°   Visibility: 6mi
Dew Point: 25°   Wind: 12mph
Humidity: 80%   Direction: 30°NNE
Pressure: 29.77"   Gusts: NA
Location:  60.53°N, 28.68°E
Report Text: EFLP 210720Z AUTO 03010KT 360V070 9999 BKN016 OVC021 M01/M04 Q1008
Loading
Personal Weather Stations






























Interactive Weather Map
Tropical Storm Tracking
New forecast layout! Learn more

10-Day Weather Forecast

Advertisements
Track Severe Weather on mobile